OSLK1: Labette Creek nr Oswego Ks

Data processed at Fri May 24 2019 23:50


All information presented herein is the property of the government of the United States of America and may be revised or deleted at any time without prior notice.
Dissemination of this information without the expressed written consent of the Public Affairs Office, Tulsa District U.S. Army Corps of Engineers is strictly prohibited.
These data are gathered electronically and, as presented, have not undergone any form of quality control. These data are not guaranteed to be valid or correct.
Go to home page.
Go to station list.
Go to home page.

Downstream station:


Previous Day
Next Day
Current Day
    
SHEF ID:       OSLK1     LABETTE C NR OSWEGO, KS
STATION TYPE:  
Regulating: Stage =    20.00, Flow =     5528

               PRECIP     STAGE  STAGE(2)  RIV-FLOW  BAT-LOAD
                   in        ft        ft       cfs      volt
              Ccp-Rev   Ccp-Rev   Ccp-Rev   Ccp-Rev   Ccp-Rev
(US/Central)
05/24 00:00      0.00     22.87      ----      7017     12.97
05/24 01:00      0.00     22.79      ----      6965     12.97
05/24 02:00      0.00     22.70      ----      6907     12.97
05/24 03:00      0.00     22.58      ----      6829     12.97
05/24 04:00      0.00     22.46      ----      6752     12.89
05/24 05:00      0.00     22.28      ----      6637     12.89
05/24 06:00      0.00     22.07      ----      6516     12.89
05/24 07:00      0.00     21.80      ----      6369     12.89
05/24 08:00      0.00     21.41      ----      6166     12.97
05/24 09:00      0.00     20.91      ----      5938     13.05
05/24 10:00      0.00     20.17      ----      5604     13.68
05/24 11:00      0.00     19.20      ----      5171     13.44
05/24 12:00      0.42     18.07      ----      4675     13.53
05/24 13:00      0.08     17.03      ----      4225     13.21
05/24 14:00      0.00     15.92      ----      3754     13.53
05/24 15:00      0.00     14.84      ----      3306     13.37
05/24 16:00      0.00     13.85      ----      2903     13.44
05/24 17:00      0.00     12.92      ----      2533     13.37
05/24 18:00      0.00     12.06      ----      2199     13.37
05/24 19:00      0.00     11.36      ----      1934     13.37
05/24 20:00      0.00     10.79      ----      1722     13.13
05/24 21:00      0.00     10.33      ----      1554     13.05
05/24 22:00      0.16     10.00      ----      1435     12.97
05/24 23:00      0.52     10.37      ----      1568     12.97